sensor_id;sensor_type;location;lat;lon;timestamp;P1;durP1;ratioP1;P2;durP2;ratioP2
5616;SDS011;2830;50.656;7.568;2023-04-24T00:01:05;7.60;;;0.90;;
5616;SDS011;2830;50.656;7.568;2023-04-24T00:03:33;9.37;;;0.90;;
5616;SDS011;2830;50.656;7.568;2023-04-24T00:06:00;8.17;;;0.93;;
5616;SDS011;2830;50.656;7.568;2023-04-24T00:08:28;9.27;;;0.80;;
5616;SDS011;2830;50.656;7.568;2023-04-24T00:10:55;8.27;;;0.90;;
5616;SDS011;2830;50.656;7.568;2023-04-24T00:13:22;8.93;;;1.20;;
5616;SDS011;2830;50.656;7.568;2023-04-24T00:15:49;7.90;;;1.00;;
5616;SDS011;2830;50.656;7.568;2023-04-24T00:18:15;10.10;;;0.87;;
5616;SDS011;2830;50.656;7.568;2023-04-24T00:20:42;9.57;;;0.87;;
5616;SDS011;2830;50.656;7.568;2023-04-24T00:23:10;8.30;;;0.80;;
5616;SDS011;2830;50.656;7.568;2023-04-24T00:25:36;8.03;;;0.90;;
5616;SDS011;2830;50.656;7.568;2023-04-24T00:28:03;10.10;;;1.50;;
5616;SDS011;2830;50.656;7.568;2023-04-24T00:30:29;11.87;;;2.90;;
5616;SDS011;2830;50.656;7.568;2023-04-24T00:32:56;11.63;;;1.60;;
5616;SDS011;2830;50.656;7.568;2023-04-24T00:35:23;10.27;;;1.40;;
5616;SDS011;2830;50.656;7.568;2023-04-24T00:37:50;8.00;;;1.00;;
5616;SDS011;2830;50.656;7.568;2023-04-24T00:40:17;8.10;;;0.93;;
5616;SDS011;2830;50.656;7.568;2023-04-24T00:42:43;8.77;;;1.33;;
5616;SDS011;2830;50.656;7.568;2023-04-24T00:45:11;8.83;;;1.03;;
5616;SDS011;2830;50.656;7.568;2023-04-24T00:47:38;7.70;;;0.70;;
5616;SDS011;2830;50.656;7.568;2023-04-24T00:50:05;8.07;;;0.80;;
5616;SDS011;2830;50.656;7.568;2023-04-24T00:52:32;8.70;;;1.00;;
5616;SDS011;2830;50.656;7.568;2023-04-24T00:54:59;8.60;;;0.70;;
5616;SDS011;2830;50.656;7.568;2023-04-24T00:57:26;10.20;;;0.87;;
5616;SDS011;2830;50.656;7.568;2023-04-24T00:59:53;8.07;;;0.60;;
5616;SDS011;2830;50.656;7.568;2023-04-24T01:02:21;8.13;;;0.80;;
5616;SDS011;2830;50.656;7.568;2023-04-24T01:04:50;9.13;;;0.73;;
5616;SDS011;2830;50.656;7.568;2023-04-24T01:07:18;8.03;;;0.63;;
5616;SDS011;2830;50.656;7.568;2023-04-24T01:09:47;8.50;;;1.00;;
5616;SDS011;2830;50.656;7.568;2023-04-24T01:12:15;11.13;;;0.70;;
5616;SDS011;2830;50.656;7.568;2023-04-24T01:14:42;9.10;;;0.80;;
5616;SDS011;2830;50.656;7.568;2023-04-24T01:17:09;9.17;;;0.80;;
5616;SDS011;2830;50.656;7.568;2023-04-24T01:19:35;8.87;;;0.60;;
5616;SDS011;2830;50.656;7.568;2023-04-24T01:22:03;8.17;;;0.77;;
5616;SDS011;2830;50.656;7.568;2023-04-24T01:24:34;8.17;;;0.60;;
5616;SDS011;2830;50.656;7.568;2023-04-24T01:27:01;8.50;;;0.80;;
5616;SDS011;2830;50.656;7.568;2023-04-24T01:29:28;7.83;;;0.70;;
5616;SDS011;2830;50.656;7.568;2023-04-24T01:31:55;8.30;;;0.80;;
5616;SDS011;2830;50.656;7.568;2023-04-24T01:34:21;8.30;;;0.80;;
5616;SDS011;2830;50.656;7.568;2023-04-24T01:36:48;8.67;;;0.60;;
5616;SDS011;2830;50.656;7.568;2023-04-24T01:39:16;9.17;;;0.90;;
5616;SDS011;2830;50.656;7.568;2023-04-24T01:41:43;8.33;;;0.83;;
5616;SDS011;2830;50.656;7.568;2023-04-24T01:44:09;8.90;;;0.80;;
5616;SDS011;2830;50.656;7.568;2023-04-24T01:46:36;8.50;;;0.90;;
5616;SDS011;2830;50.656;7.568;2023-04-24T01:49:03;8.20;;;0.90;;
5616;SDS011;2830;50.656;7.568;2023-04-24T01:51:30;9.87;;;0.87;;
5616;SDS011;2830;50.656;7.568;2023-04-24T01:53:56;8.50;;;0.80;;
5616;SDS011;2830;50.656;7.568;2023-04-24T01:56:23;8.40;;;0.80;;
5616;SDS011;2830;50.656;7.568;2023-04-24T01:58:51;8.00;;;0.80;;
5616;SDS011;2830;50.656;7.568;2023-04-24T02:01:20;9.20;;;1.33;;
5616;SDS011;2830;50.656;7.568;2023-04-24T02:03:47;8.90;;;1.03;;
5616;SDS011;2830;50.656;7.568;2023-04-24T02:06:14;7.77;;;0.87;;
5616;SDS011;2830;50.656;7.568;2023-04-24T02:08:40;7.83;;;0.97;;
5616;SDS011;2830;50.656;7.568;2023-04-24T02:11:10;7.60;;;0.80;;
5616;SDS011;2830;50.656;7.568;2023-04-24T02:13:37;9.00;;;1.00;;
5616;SDS011;2830;50.656;7.568;2023-04-24T02:16:04;8.27;;;1.00;;
5616;SDS011;2830;50.656;7.568;2023-04-24T02:18:30;7.60;;;0.80;;
5616;SDS011;2830;50.656;7.568;2023-04-24T02:20:57;7.60;;;0.90;;
5616;SDS011;2830;50.656;7.568;2023-04-24T02:23:24;7.87;;;0.90;;
5616;SDS011;2830;50.656;7.568;2023-04-24T02:25:51;9.53;;;1.10;;
5616;SDS011;2830;50.656;7.568;2023-04-24T02:28:19;7.97;;;1.23;;
5616;SDS011;2830;50.656;7.568;2023-04-24T02:30:46;8.00;;;1.20;;
5616;SDS011;2830;50.656;7.568;2023-04-24T02:33:12;7.47;;;0.87;;
5616;SDS011;2830;50.656;7.568;2023-04-24T02:35:39;8.20;;;0.93;;
5616;SDS011;2830;50.656;7.568;2023-04-24T02:38:06;8.83;;;1.00;;
5616;SDS011;2830;50.656;7.568;2023-04-24T02:40:32;8.33;;;0.90;;
5616;SDS011;2830;50.656;7.568;2023-04-24T02:42:59;9.60;;;1.10;;
5616;SDS011;2830;50.656;7.568;2023-04-24T02:45:25;7.60;;;1.10;;
5616;SDS011;2830;50.656;7.568;2023-04-24T02:47:52;8.50;;;1.30;;
5616;SDS011;2830;50.656;7.568;2023-04-24T02:50:19;8.50;;;1.20;;
5616;SDS011;2830;50.656;7.568;2023-04-24T02:52:45;9.90;;;1.20;;
5616;SDS011;2830;50.656;7.568;2023-04-24T02:55:13;8.17;;;1.50;;
5616;SDS011;2830;50.656;7.568;2023-04-24T02:57:40;7.73;;;1.13;;
5616;SDS011;2830;50.656;7.568;2023-04-24T03:00:07;8.17;;;1.33;;
5616;SDS011;2830;50.656;7.568;2023-04-24T03:02:35;8.97;;;1.70;;
5616;SDS011;2830;50.656;7.568;2023-04-24T03:05:01;8.70;;;1.90;;
5616;SDS011;2830;50.656;7.568;2023-04-24T03:07:29;12.90;;;5.00;;
5616;SDS011;2830;50.656;7.568;2023-04-24T03:09:57;8.87;;;1.90;;
5616;SDS011;2830;50.656;7.568;2023-04-24T03:12:24;9.40;;;1.80;;
5616;SDS011;2830;50.656;7.568;2023-04-24T03:14:51;8.97;;;1.90;;
5616;SDS011;2830;50.656;7.568;2023-04-24T03:17:18;8.97;;;2.13;;
5616;SDS011;2830;50.656;7.568;2023-04-24T03:19:44;9.30;;;2.20;;
5616;SDS011;2830;50.656;7.568;2023-04-24T03:22:11;10.07;;;1.93;;
5616;SDS011;2830;50.656;7.568;2023-04-24T03:24:38;8.80;;;1.90;;
5616;SDS011;2830;50.656;7.568;2023-04-24T03:27:04;9.07;;;2.10;;
5616;SDS011;2830;50.656;7.568;2023-04-24T03:29:31;9.57;;;2.30;;
5616;SDS011;2830;50.656;7.568;2023-04-24T03:31:58;11.50;;;3.30;;
5616;SDS011;2830;50.656;7.568;2023-04-24T03:34:25;13.37;;;2.37;;
5616;SDS011;2830;50.656;7.568;2023-04-24T03:36:52;10.20;;;2.60;;
5616;SDS011;2830;50.656;7.568;2023-04-24T03:39:19;12.00;;;3.00;;
5616;SDS011;2830;50.656;7.568;2023-04-24T03:41:46;14.40;;;5.67;;
5616;SDS011;2830;50.656;7.568;2023-04-24T03:44:12;11.27;;;3.60;;
5616;SDS011;2830;50.656;7.568;2023-04-24T03:46:39;10.83;;;3.10;;
5616;SDS011;2830;50.656;7.568;2023-04-24T03:49:06;11.80;;;3.20;;
5616;SDS011;2830;50.656;7.568;2023-04-24T03:51:32;10.23;;;3.07;;
5616;SDS011;2830;50.656;7.568;2023-04-24T03:53:59;10.87;;;3.03;;
5616;SDS011;2830;50.656;7.568;2023-04-24T03:56:26;10.07;;;2.30;;
5616;SDS011;2830;50.656;7.568;2023-04-24T03:58:52;9.10;;;2.70;;
5616;SDS011;2830;50.656;7.568;2023-04-24T04:01:19;12.30;;;3.70;;
5616;SDS011;2830;50.656;7.568;2023-04-24T04:03:46;10.90;;;3.60;;
5616;SDS011;2830;50.656;7.568;2023-04-24T04:06:14;11.77;;;4.47;;
5616;SDS011;2830;50.656;7.568;2023-04-24T04:08:40;12.40;;;4.10;;
5616;SDS011;2830;50.656;7.568;2023-04-24T04:11:07;11.20;;;3.50;;
5616;SDS011;2830;50.656;7.568;2023-04-24T04:13:33;14.73;;;4.10;;
5616;SDS011;2830;50.656;7.568;2023-04-24T04:16:00;10.30;;;3.60;;
5616;SDS011;2830;50.656;7.568;2023-04-24T04:18:27;13.83;;;4.27;;
5616;SDS011;2830;50.656;7.568;2023-04-24T04:20:54;10.93;;;4.20;;
5616;SDS011;2830;50.656;7.568;2023-04-24T04:23:20;11.50;;;3.97;;
5616;SDS011;2830;50.656;7.568;2023-04-24T04:25:47;12.20;;;4.07;;
5616;SDS011;2830;50.656;7.568;2023-04-24T04:28:15;11.73;;;5.10;;
5616;SDS011;2830;50.656;7.568;2023-04-24T04:30:41;10.60;;;3.40;;
5616;SDS011;2830;50.656;7.568;2023-04-24T04:33:08;11.77;;;3.90;;
5616;SDS011;2830;50.656;7.568;2023-04-24T04:35:36;12.33;;;4.10;;
5616;SDS011;2830;50.656;7.568;2023-04-24T04:38:03;17.93;;;3.77;;
5616;SDS011;2830;50.656;7.568;2023-04-24T04:40:30;11.47;;;3.47;;
5616;SDS011;2830;50.656;7.568;2023-04-24T04:42:57;11.03;;;3.80;;
5616;SDS011;2830;50.656;7.568;2023-04-24T04:45:24;10.70;;;3.13;;
5616;SDS011;2830;50.656;7.568;2023-04-24T04:47:53;12.90;;;4.50;;
5616;SDS011;2830;50.656;7.568;2023-04-24T04:50:21;11.50;;;3.53;;
5616;SDS011;2830;50.656;7.568;2023-04-24T04:52:48;13.20;;;4.00;;
5616;SDS011;2830;50.656;7.568;2023-04-24T04:55:15;11.30;;;3.30;;
5616;SDS011;2830;50.656;7.568;2023-04-24T04:57:42;9.80;;;3.40;;
5616;SDS011;2830;50.656;7.568;2023-04-24T05:00:09;11.70;;;3.33;;
5616;SDS011;2830;50.656;7.568;2023-04-24T05:02:37;10.30;;;3.53;;
5616;SDS011;2830;50.656;7.568;2023-04-24T05:05:05;10.00;;;3.20;;
5616;SDS011;2830;50.656;7.568;2023-04-24T05:07:33;9.33;;;3.00;;
5616;SDS011;2830;50.656;7.568;2023-04-24T05:10:00;10.40;;;3.20;;
5616;SDS011;2830;50.656;7.568;2023-04-24T05:12:27;9.47;;;2.87;;
5616;SDS011;2830;50.656;7.568;2023-04-24T05:14:53;9.30;;;2.80;;
5616;SDS011;2830;50.656;7.568;2023-04-24T05:17:20;10.90;;;2.73;;
5616;SDS011;2830;50.656;7.568;2023-04-24T05:19:47;10.87;;;3.10;;
5616;SDS011;2830;50.656;7.568;2023-04-24T05:22:14;10.87;;;3.57;;
5616;SDS011;2830;50.656;7.568;2023-04-24T05:24:41;9.27;;;2.73;;
5616;SDS011;2830;50.656;7.568;2023-04-24T05:27:07;14.87;;;3.30;;
5616;SDS011;2830;50.656;7.568;2023-04-24T05:29:34;10.30;;;3.30;;
5616;SDS011;2830;50.656;7.568;2023-04-24T05:32:01;12.30;;;2.90;;
5616;SDS011;2830;50.656;7.568;2023-04-24T05:34:28;12.37;;;3.70;;
5616;SDS011;2830;50.656;7.568;2023-04-24T05:36:55;11.17;;;2.83;;
5616;SDS011;2830;50.656;7.568;2023-04-24T05:39:21;10.90;;;3.17;;
5616;SDS011;2830;50.656;7.568;2023-04-24T05:41:48;10.63;;;2.80;;
5616;SDS011;2830;50.656;7.568;2023-04-24T05:44:15;11.13;;;2.90;;
5616;SDS011;2830;50.656;7.568;2023-04-24T05:46:41;10.13;;;3.43;;
5616;SDS011;2830;50.656;7.568;2023-04-24T05:49:08;11.30;;;3.60;;
5616;SDS011;2830;50.656;7.568;2023-04-24T05:51:35;10.53;;;2.90;;
5616;SDS011;2830;50.656;7.568;2023-04-24T05:54:01;10.83;;;3.70;;
5616;SDS011;2830;50.656;7.568;2023-04-24T05:56:29;11.40;;;3.33;;
5616;SDS011;2830;50.656;7.568;2023-04-24T05:58:56;9.90;;;3.13;;
5616;SDS011;2830;50.656;7.568;2023-04-24T06:01:23;11.23;;;2.90;;
5616;SDS011;2830;50.656;7.568;2023-04-24T06:03:51;10.63;;;3.30;;
5616;SDS011;2830;50.656;7.568;2023-04-24T06:06:19;11.20;;;3.17;;
5616;SDS011;2830;50.656;7.568;2023-04-24T06:08:45;10.57;;;2.87;;
5616;SDS011;2830;50.656;7.568;2023-04-24T06:11:12;11.93;;;3.40;;
5616;SDS011;2830;50.656;7.568;2023-04-24T06:13:39;14.80;;;4.00;;
5616;SDS011;2830;50.656;7.568;2023-04-24T06:16:05;10.90;;;3.37;;
5616;SDS011;2830;50.656;7.568;2023-04-24T06:18:32;11.00;;;3.87;;
5616;SDS011;2830;50.656;7.568;2023-04-24T06:20:59;12.30;;;4.20;;
5616;SDS011;2830;50.656;7.568;2023-04-24T06:23:26;12.40;;;3.77;;
5616;SDS011;2830;50.656;7.568;2023-04-24T06:25:53;14.13;;;3.90;;
5616;SDS011;2830;50.656;7.568;2023-04-24T06:28:19;13.50;;;3.50;;
5616;SDS011;2830;50.656;7.568;2023-04-24T06:30:46;11.40;;;3.47;;
5616;SDS011;2830;50.656;7.568;2023-04-24T06:33:12;13.73;;;3.97;;
5616;SDS011;2830;50.656;7.568;2023-04-24T06:35:44;11.07;;;3.60;;
5616;SDS011;2830;50.656;7.568;2023-04-24T06:38:11;12.83;;;4.50;;
5616;SDS011;2830;50.656;7.568;2023-04-24T06:40:37;12.80;;;3.90;;
5616;SDS011;2830;50.656;7.568;2023-04-24T06:43:04;14.67;;;5.43;;
5616;SDS011;2830;50.656;7.568;2023-04-24T06:45:32;17.00;;;4.30;;
5616;SDS011;2830;50.656;7.568;2023-04-24T06:47:58;11.80;;;3.87;;
5616;SDS011;2830;50.656;7.568;2023-04-24T06:50:25;12.47;;;4.10;;
5616;SDS011;2830;50.656;7.568;2023-04-24T06:52:52;16.87;;;4.67;;
5616;SDS011;2830;50.656;7.568;2023-04-24T06:55:19;11.17;;;3.70;;
5616;SDS011;2830;50.656;7.568;2023-04-24T06:57:45;13.33;;;4.53;;
5616;SDS011;2830;50.656;7.568;2023-04-24T07:00:12;11.70;;;4.30;;
5616;SDS011;2830;50.656;7.568;2023-04-24T07:02:39;11.97;;;4.13;;
5616;SDS011;2830;50.656;7.568;2023-04-24T07:05:06;15.10;;;5.00;;
5616;SDS011;2830;50.656;7.568;2023-04-24T07:07:34;13.10;;;5.40;;
5616;SDS011;2830;50.656;7.568;2023-04-24T07:10:04;13.57;;;5.00;;
5616;SDS011;2830;50.656;7.568;2023-04-24T07:12:31;19.60;;;4.83;;
5616;SDS011;2830;50.656;7.568;2023-04-24T07:14:59;14.27;;;4.90;;
5616;SDS011;2830;50.656;7.568;2023-04-24T07:17:26;11.33;;;4.27;;
5616;SDS011;2830;50.656;7.568;2023-04-24T07:19:53;11.63;;;4.57;;
5616;SDS011;2830;50.656;7.568;2023-04-24T07:22:20;13.50;;;5.00;;
5616;SDS011;2830;50.656;7.568;2023-04-24T07:24:46;12.13;;;5.03;;
5616;SDS011;2830;50.656;7.568;2023-04-24T07:27:13;16.17;;;4.80;;
5616;SDS011;2830;50.656;7.568;2023-04-24T07:29:41;17.97;;;5.90;;
5616;SDS011;2830;50.656;7.568;2023-04-24T07:32:08;11.07;;;4.00;;
5616;SDS011;2830;50.656;7.568;2023-04-24T07:34:35;12.57;;;4.43;;
5616;SDS011;2830;50.656;7.568;2023-04-24T07:37:02;17.03;;;5.47;;
5616;SDS011;2830;50.656;7.568;2023-04-24T07:39:29;11.37;;;4.63;;
5616;SDS011;2830;50.656;7.568;2023-04-24T07:41:56;12.73;;;4.23;;
5616;SDS011;2830;50.656;7.568;2023-04-24T07:44:24;14.07;;;5.20;;
5616;SDS011;2830;50.656;7.568;2023-04-24T07:46:52;10.60;;;3.80;;
5616;SDS011;2830;50.656;7.568;2023-04-24T07:49:19;13.87;;;4.67;;
5616;SDS011;2830;50.656;7.568;2023-04-24T07:51:45;14.60;;;4.77;;
5616;SDS011;2830;50.656;7.568;2023-04-24T07:54:12;11.23;;;4.30;;
5616;SDS011;2830;50.656;7.568;2023-04-24T07:56:38;12.20;;;4.70;;
5616;SDS011;2830;50.656;7.568;2023-04-24T07:59:07;11.30;;;4.60;;
5616;SDS011;2830;50.656;7.568;2023-04-24T08:01:35;12.10;;;4.40;;
5616;SDS011;2830;50.656;7.568;2023-04-24T08:04:02;13.60;;;4.90;;
5616;SDS011;2830;50.656;7.568;2023-04-24T08:06:29;11.30;;;4.30;;
5616;SDS011;2830;50.656;7.568;2023-04-24T08:08:58;13.87;;;4.10;;
5616;SDS011;2830;50.656;7.568;2023-04-24T08:11:25;11.63;;;4.80;;
5616;SDS011;2830;50.656;7.568;2023-04-24T08:13:52;12.30;;;4.03;;
5616;SDS011;2830;50.656;7.568;2023-04-24T08:16:20;15.30;;;6.73;;
5616;SDS011;2830;50.656;7.568;2023-04-24T08:18:47;11.33;;;3.87;;
5616;SDS011;2830;50.656;7.568;2023-04-24T08:21:14;11.57;;;4.20;;
5616;SDS011;2830;50.656;7.568;2023-04-24T08:23:43;10.83;;;4.03;;
5616;SDS011;2830;50.656;7.568;2023-04-24T08:26:10;16.20;;;4.73;;
5616;SDS011;2830;50.656;7.568;2023-04-24T08:28:37;11.00;;;3.80;;
5616;SDS011;2830;50.656;7.568;2023-04-24T08:31:04;11.40;;;4.70;;
5616;SDS011;2830;50.656;7.568;2023-04-24T08:33:31;11.40;;;3.60;;
5616;SDS011;2830;50.656;7.568;2023-04-24T08:36:01;11.70;;;3.83;;
5616;SDS011;2830;50.656;7.568;2023-04-24T08:38:32;10.90;;;2.90;;
5616;SDS011;2830;50.656;7.568;2023-04-24T08:41:00;12.00;;;3.50;;
5616;SDS011;2830;50.656;7.568;2023-04-24T08:43:29;11.10;;;2.70;;
5616;SDS011;2830;50.656;7.568;2023-04-24T08:45:56;9.77;;;2.23;;
5616;SDS011;2830;50.656;7.568;2023-04-24T08:48:23;9.97;;;2.20;;
5616;SDS011;2830;50.656;7.568;2023-04-24T08:50:57;10.20;;;2.30;;
5616;SDS011;2830;50.656;7.568;2023-04-24T08:53:25;8.97;;;2.00;;
5616;SDS011;2830;50.656;7.568;2023-04-24T08:55:53;8.60;;;1.60;;
5616;SDS011;2830;50.656;7.568;2023-04-24T08:58:21;9.20;;;1.90;;
5616;SDS011;2830;50.656;7.568;2023-04-24T09:00:51;10.10;;;1.87;;
5616;SDS011;2830;50.656;7.568;2023-04-24T09:03:20;8.77;;;1.70;;
5616;SDS011;2830;50.656;7.568;2023-04-24T09:05:48;9.93;;;2.10;;
5616;SDS011;2830;50.656;7.568;2023-04-24T09:08:17;11.37;;;1.70;;
5616;SDS011;2830;50.656;7.568;2023-04-24T09:10:45;9.83;;;1.70;;
5616;SDS011;2830;50.656;7.568;2023-04-24T09:13:14;8.30;;;1.10;;
5616;SDS011;2830;50.656;7.568;2023-04-24T09:15:42;11.00;;;3.23;;
5616;SDS011;2830;50.656;7.568;2023-04-24T09:18:09;9.10;;;1.27;;
5616;SDS011;2830;50.656;7.568;2023-04-24T09:20:57;9.00;;;1.20;;
5616;SDS011;2830;50.656;7.568;2023-04-24T09:23:28;8.63;;;1.30;;
5616;SDS011;2830;50.656;7.568;2023-04-24T09:25:56;8.30;;;1.30;;
5616;SDS011;2830;50.656;7.568;2023-04-24T09:28:36;8.77;;;1.20;;
5616;SDS011;2830;50.656;7.568;2023-04-24T09:31:09;9.10;;;1.10;;
5616;SDS011;2830;50.656;7.568;2023-04-24T09:33:54;9.93;;;1.40;;
5616;SDS011;2830;50.656;7.568;2023-04-24T09:38:58;9.00;;;1.60;;
5616;SDS011;2830;50.656;7.568;2023-04-24T09:41:26;9.40;;;1.60;;
5616;SDS011;2830;50.656;7.568;2023-04-24T09:43:54;11.67;;;2.10;;
5616;SDS011;2830;50.656;7.568;2023-04-24T09:46:28;10.17;;;1.97;;
5616;SDS011;2830;50.656;7.568;2023-04-24T09:48:58;10.87;;;2.17;;
5616;SDS011;2830;50.656;7.568;2023-04-24T09:51:35;9.33;;;1.80;;
5616;SDS011;2830;50.656;7.568;2023-04-24T09:54:04;9.43;;;1.80;;
5616;SDS011;2830;50.656;7.568;2023-04-24T09:56:42;11.50;;;2.10;;
5616;SDS011;2830;50.656;7.568;2023-04-24T09:59:11;11.80;;;2.23;;
5616;SDS011;2830;50.656;7.568;2023-04-24T10:01:39;10.53;;;2.20;;
5616;SDS011;2830;50.656;7.568;2023-04-24T10:04:18;10.10;;;2.40;;
5616;SDS011;2830;50.656;7.568;2023-04-24T10:06:47;11.90;;;2.50;;
5616;SDS011;2830;50.656;7.568;2023-04-24T10:09:18;10.70;;;2.43;;
5616;SDS011;2830;50.656;7.568;2023-04-24T10:11:47;9.57;;;1.67;;
5616;SDS011;2830;50.656;7.568;2023-04-24T10:14:16;10.10;;;2.17;;
5616;SDS011;2830;50.656;7.568;2023-04-24T10:16:45;9.40;;;1.97;;
5616;SDS011;2830;50.656;7.568;2023-04-24T10:19:16;9.70;;;1.50;;
5616;SDS011;2830;50.656;7.568;2023-04-24T10:21:44;9.10;;;1.93;;
5616;SDS011;2830;50.656;7.568;2023-04-24T10:24:15;10.13;;;1.67;;
5616;SDS011;2830;50.656;7.568;2023-04-24T10:26:43;10.50;;;2.20;;
5616;SDS011;2830;50.656;7.568;2023-04-24T10:29:12;9.90;;;2.00;;
5616;SDS011;2830;50.656;7.568;2023-04-24T10:31:41;9.40;;;1.90;;
5616;SDS011;2830;50.656;7.568;2023-04-24T10:34:09;9.87;;;1.90;;
5616;SDS011;2830;50.656;7.568;2023-04-24T10:36:37;10.30;;;1.93;;
5616;SDS011;2830;50.656;7.568;2023-04-24T10:39:08;10.07;;;1.80;;
5616;SDS011;2830;50.656;7.568;2023-04-24T10:41:38;11.07;;;2.30;;
5616;SDS011;2830;50.656;7.568;2023-04-24T10:44:10;9.73;;;2.20;;
5616;SDS011;2830;50.656;7.568;2023-04-24T10:46:38;10.10;;;2.10;;
5616;SDS011;2830;50.656;7.568;2023-04-24T10:49:08;21.70;;;5.10;;
5616;SDS011;2830;50.656;7.568;2023-04-24T10:51:45;12.37;;;3.17;;
5616;SDS011;2830;50.656;7.568;2023-04-24T10:54:26;9.93;;;2.40;;
5616;SDS011;2830;50.656;7.568;2023-04-24T10:56:55;11.50;;;2.40;;
5616;SDS011;2830;50.656;7.568;2023-04-24T10:59:49;13.00;;;3.93;;
5616;SDS011;2830;50.656;7.568;2023-04-24T11:02:55;10.50;;;2.80;;
5616;SDS011;2830;50.656;7.568;2023-04-24T11:05:49;13.30;;;2.60;;
5616;SDS011;2830;50.656;7.568;2023-04-24T11:08:23;10.23;;;1.93;;
5616;SDS011;2830;50.656;7.568;2023-04-24T11:10:56;10.60;;;2.07;;
5616;SDS011;2830;50.656;7.568;2023-04-24T11:13:25;9.97;;;2.30;;
5616;SDS011;2830;50.656;7.568;2023-04-24T11:19:01;13.60;;;2.67;;
5616;SDS011;2830;50.656;7.568;2023-04-24T11:26:58;11.27;;;3.07;;
5616;SDS011;2830;50.656;7.568;2023-04-24T11:32:17;10.63;;;2.70;;
5616;SDS011;2830;50.656;7.568;2023-04-24T11:34:49;14.20;;;3.33;;
5616;SDS011;2830;50.656;7.568;2023-04-24T11:37:22;13.00;;;4.30;;
5616;SDS011;2830;50.656;7.568;2023-04-24T11:39:51;16.37;;;4.80;;
5616;SDS011;2830;50.656;7.568;2023-04-24T11:42:19;12.93;;;3.70;;
5616;SDS011;2830;50.656;7.568;2023-04-24T11:44:47;21.33;;;4.00;;
5616;SDS011;2830;50.656;7.568;2023-04-24T11:47:15;11.63;;;3.60;;
5616;SDS011;2830;50.656;7.568;2023-04-24T11:49:42;12.87;;;3.70;;
5616;SDS011;2830;50.656;7.568;2023-04-24T11:52:08;15.10;;;4.20;;
5616;SDS011;2830;50.656;7.568;2023-04-24T11:54:36;14.63;;;5.60;;
5616;SDS011;2830;50.656;7.568;2023-04-24T11:57:04;12.50;;;4.03;;
5616;SDS011;2830;50.656;7.568;2023-04-24T11:59:35;16.47;;;4.53;;
5616;SDS011;2830;50.656;7.568;2023-04-24T12:02:03;12.50;;;4.27;;
5616;SDS011;2830;50.656;7.568;2023-04-24T12:04:38;15.57;;;4.50;;
5616;SDS011;2830;50.656;7.568;2023-04-24T12:07:07;21.20;;;5.30;;
5616;SDS011;2830;50.656;7.568;2023-04-24T12:10:19;15.37;;;5.93;;
5616;SDS011;2830;50.656;7.568;2023-04-24T12:12:27;17.13;;;5.07;;
5616;SDS011;2830;50.656;7.568;2023-04-24T12:14:55;13.93;;;5.07;;
5616;SDS011;2830;50.656;7.568;2023-04-24T12:17:30;15.00;;;4.23;;
5616;SDS011;2830;50.656;7.568;2023-04-24T12:19:59;16.50;;;4.90;;
5616;SDS011;2830;50.656;7.568;2023-04-24T12:22:27;16.70;;;5.30;;
5616;SDS011;2830;50.656;7.568;2023-04-24T12:25:02;14.70;;;4.93;;
5616;SDS011;2830;50.656;7.568;2023-04-24T12:27:31;16.57;;;5.20;;
5616;SDS011;2830;50.656;7.568;2023-04-24T12:29:59;17.40;;;5.87;;
5616;SDS011;2830;50.656;7.568;2023-04-24T12:32:28;14.83;;;6.17;;
5616;SDS011;2830;50.656;7.568;2023-04-24T12:34:55;16.70;;;6.07;;
5616;SDS011;2830;50.656;7.568;2023-04-24T12:37:25;17.20;;;4.63;;
5616;SDS011;2830;50.656;7.568;2023-04-24T12:40:05;14.67;;;4.77;;
5616;SDS011;2830;50.656;7.568;2023-04-24T12:42:33;14.50;;;4.13;;
5616;SDS011;2830;50.656;7.568;2023-04-24T12:45:05;12.10;;;4.13;;
5616;SDS011;2830;50.656;7.568;2023-04-24T12:47:32;13.80;;;4.13;;
5616;SDS011;2830;50.656;7.568;2023-04-24T12:50:00;14.33;;;4.70;;
5616;SDS011;2830;50.656;7.568;2023-04-24T12:52:28;12.17;;;3.83;;
5616;SDS011;2830;50.656;7.568;2023-04-24T12:54:58;12.93;;;4.10;;
5616;SDS011;2830;50.656;7.568;2023-04-24T12:57:30;11.57;;;3.40;;
5616;SDS011;2830;50.656;7.568;2023-04-24T12:59:58;14.90;;;4.40;;
5616;SDS011;2830;50.656;7.568;2023-04-24T13:02:25;12.50;;;3.70;;
5616;SDS011;2830;50.656;7.568;2023-04-24T13:04:55;13.17;;;4.00;;
5616;SDS011;2830;50.656;7.568;2023-04-24T13:07:21;13.80;;;4.10;;
5616;SDS011;2830;50.656;7.568;2023-04-24T13:09:49;16.40;;;6.03;;
5616;SDS011;2830;50.656;7.568;2023-04-24T13:12:16;12.77;;;4.60;;
5616;SDS011;2830;50.656;7.568;2023-04-24T13:14:44;15.43;;;4.67;;
5616;SDS011;2830;50.656;7.568;2023-04-24T13:17:11;15.67;;;5.60;;
5616;SDS011;2830;50.656;7.568;2023-04-24T13:19:40;12.40;;;4.50;;
5616;SDS011;2830;50.656;7.568;2023-04-24T13:22:08;13.97;;;4.93;;
5616;SDS011;2830;50.656;7.568;2023-04-24T13:24:36;17.77;;;4.33;;
5616;SDS011;2830;50.656;7.568;2023-04-24T13:27:06;14.70;;;5.20;;
5616;SDS011;2830;50.656;7.568;2023-04-24T13:29:33;16.97;;;5.03;;
5616;SDS011;2830;50.656;7.568;2023-04-24T13:32:00;17.30;;;6.43;;
5616;SDS011;2830;50.656;7.568;2023-04-24T13:34:26;14.50;;;5.03;;
5616;SDS011;2830;50.656;7.568;2023-04-24T13:36:54;16.40;;;5.50;;
5616;SDS011;2830;50.656;7.568;2023-04-24T13:39:22;15.57;;;5.00;;
5616;SDS011;2830;50.656;7.568;2023-04-24T13:41:49;15.13;;;4.77;;
5616;SDS011;2830;50.656;7.568;2023-04-24T13:44:16;17.53;;;6.07;;
5616;SDS011;2830;50.656;7.568;2023-04-24T13:46:45;15.97;;;5.60;;
5616;SDS011;2830;50.656;7.568;2023-04-24T13:49:13;23.07;;;6.73;;
5616;SDS011;2830;50.656;7.568;2023-04-24T13:51:40;15.93;;;6.53;;
5616;SDS011;2830;50.656;7.568;2023-04-24T13:54:08;20.43;;;6.03;;
5616;SDS011;2830;50.656;7.568;2023-04-24T13:56:34;17.37;;;6.23;;
5616;SDS011;2830;50.656;7.568;2023-04-24T13:59:01;13.80;;;5.43;;
5616;SDS011;2830;50.656;7.568;2023-04-24T14:01:28;19.63;;;4.63;;
5616;SDS011;2830;50.656;7.568;2023-04-24T14:03:56;18.90;;;6.27;;
5616;SDS011;2830;50.656;7.568;2023-04-24T14:06:23;13.50;;;5.00;;
5616;SDS011;2830;50.656;7.568;2023-04-24T14:08:50;18.23;;;7.10;;
5616;SDS011;2830;50.656;7.568;2023-04-24T14:11:17;14.13;;;4.90;;
5616;SDS011;2830;50.656;7.568;2023-04-24T14:13:45;13.60;;;4.80;;
5616;SDS011;2830;50.656;7.568;2023-04-24T14:16:12;12.93;;;4.77;;
5616;SDS011;2830;50.656;7.568;2023-04-24T14:18:40;13.83;;;4.33;;
5616;SDS011;2830;50.656;7.568;2023-04-24T14:21:06;13.60;;;5.47;;
5616;SDS011;2830;50.656;7.568;2023-04-24T14:23:33;14.47;;;4.10;;
5616;SDS011;2830;50.656;7.568;2023-04-24T14:26:00;13.17;;;4.07;;
5616;SDS011;2830;50.656;7.568;2023-04-24T14:28:27;14.77;;;5.47;;
5616;SDS011;2830;50.656;7.568;2023-04-24T14:30:53;14.17;;;5.20;;
5616;SDS011;2830;50.656;7.568;2023-04-24T14:33:20;13.00;;;4.27;;
5616;SDS011;2830;50.656;7.568;2023-04-24T14:35:47;17.10;;;4.90;;
5616;SDS011;2830;50.656;7.568;2023-04-24T14:38:14;15.60;;;4.60;;
5616;SDS011;2830;50.656;7.568;2023-04-24T14:40:41;15.00;;;4.53;;
5616;SDS011;2830;50.656;7.568;2023-04-24T14:43:11;19.37;;;7.73;;
5616;SDS011;2830;50.656;7.568;2023-04-24T14:45:37;17.27;;;4.23;;
5616;SDS011;2830;50.656;7.568;2023-04-24T14:48:06;15.90;;;4.90;;
5616;SDS011;2830;50.656;7.568;2023-04-24T14:50:34;16.40;;;3.73;;
5616;SDS011;2830;50.656;7.568;2023-04-24T14:53:01;13.37;;;4.37;;
5616;SDS011;2830;50.656;7.568;2023-04-24T14:55:28;13.60;;;4.20;;
5616;SDS011;2830;50.656;7.568;2023-04-24T14:57:55;14.13;;;5.17;;
5616;SDS011;2830;50.656;7.568;2023-04-24T15:00:22;20.53;;;5.53;;
5616;SDS011;2830;50.656;7.568;2023-04-24T15:02:51;14.60;;;5.27;;
5616;SDS011;2830;50.656;7.568;2023-04-24T15:05:18;16.47;;;5.23;;
5616;SDS011;2830;50.656;7.568;2023-04-24T15:07:46;14.30;;;5.73;;
5616;SDS011;2830;50.656;7.568;2023-04-24T15:10:12;17.40;;;5.50;;
5616;SDS011;2830;50.656;7.568;2023-04-24T15:12:39;15.40;;;4.73;;
5616;SDS011;2830;50.656;7.568;2023-04-24T15:15:06;17.60;;;4.70;;
5616;SDS011;2830;50.656;7.568;2023-04-24T15:17:33;16.03;;;6.80;;
5616;SDS011;2830;50.656;7.568;2023-04-24T15:20:00;17.63;;;5.90;;
5616;SDS011;2830;50.656;7.568;2023-04-24T15:22:28;15.03;;;5.53;;
5616;SDS011;2830;50.656;7.568;2023-04-24T15:24:55;14.23;;;5.60;;